Terminal Aerodrome Forecast
Issued by NWS Brownsville, TX

Home | Current Version | Previous Version | Text Only | Print | Product List | Glossary On
Versions: 1 2 3 4 5 6 7 8 9 10 11 12 13
772
FTUS44 KBRO 261132
TAFBRO
TAF
KBRO 261132Z 2612/2712 17009KT P6SM FEW025 SCT250
     FM261500 17014KT P6SM VCSH SCT025 BKN035
     FM261800 15016G22KT P6SM VCSH SCT035 BKN250
     FM270100 15011KT P6SM FEW020 SCT250
     FM270600 17008KT P6SM SCT020 SCT250=

USA.gov is the U.S. government's official web portal to all federal, state and local government web resources and services.